sensor_id;sensor_type;location;lat;lon;timestamp;P1;durP1;ratioP1;P2;durP2;ratioP2
38865;SDS011;62686;48.984;8.394;2022-09-27T00:01:16;2.97;;;1.80;;
38865;SDS011;62686;48.984;8.394;2022-09-27T00:03:44;2.33;;;1.80;;
38865;SDS011;62686;48.984;8.394;2022-09-27T00:06:13;7.90;;;1.93;;
38865;SDS011;62686;48.984;8.394;2022-09-27T00:08:43;3.90;;;2.00;;
38865;SDS011;62686;48.984;8.394;2022-09-27T00:11:14;4.47;;;2.00;;
38865;SDS011;62686;48.984;8.394;2022-09-27T00:13:49;4.07;;;1.70;;
38865;SDS011;62686;48.984;8.394;2022-09-27T00:16:17;2.70;;;2.07;;
38865;SDS011;62686;48.984;8.394;2022-09-27T00:18:46;3.23;;;1.90;;
38865;SDS011;62686;48.984;8.394;2022-09-27T00:21:14;3.83;;;2.00;;
38865;SDS011;62686;48.984;8.394;2022-09-27T00:23:42;3.13;;;1.97;;
38865;SDS011;62686;48.984;8.394;2022-09-27T00:26:13;3.40;;;2.43;;
38865;SDS011;62686;48.984;8.394;2022-09-27T00:28:41;2.90;;;2.30;;
38865;SDS011;62686;48.984;8.394;2022-09-27T00:31:12;3.30;;;2.13;;
38865;SDS011;62686;48.984;8.394;2022-09-27T00:33:46;3.60;;;2.30;;
38865;SDS011;62686;48.984;8.394;2022-09-27T00:36:15;4.83;;;2.43;;
38865;SDS011;62686;48.984;8.394;2022-09-27T00:38:44;11.63;;;6.40;;
38865;SDS011;62686;48.984;8.394;2022-09-27T00:41:15;9.33;;;5.80;;
38865;SDS011;62686;48.984;8.394;2022-09-27T00:43:46;7.77;;;4.57;;
38865;SDS011;62686;48.984;8.394;2022-09-27T00:46:18;9.80;;;4.30;;
38865;SDS011;62686;48.984;8.394;2022-09-27T00:48:51;10.53;;;5.50;;
38865;SDS011;62686;48.984;8.394;2022-09-27T00:51:29;8.13;;;4.47;;
38865;SDS011;62686;48.984;8.394;2022-09-27T00:53:59;6.80;;;4.07;;
38865;SDS011;62686;48.984;8.394;2022-09-27T00:56:29;4.67;;;3.50;;
38865;SDS011;62686;48.984;8.394;2022-09-27T00:59:01;3.50;;;2.77;;
38865;SDS011;62686;48.984;8.394;2022-09-27T01:01:35;6.93;;;3.47;;
38865;SDS011;62686;48.984;8.394;2022-09-27T01:04:05;7.10;;;3.50;;
38865;SDS011;62686;48.984;8.394;2022-09-27T01:06:36;3.43;;;2.47;;
38865;SDS011;62686;48.984;8.394;2022-09-27T01:09:04;3.10;;;2.47;;
38865;SDS011;62686;48.984;8.394;2022-09-27T01:11:37;6.03;;;2.10;;
38865;SDS011;62686;48.984;8.394;2022-09-27T01:14:15;4.20;;;2.00;;
38865;SDS011;62686;48.984;8.394;2022-09-27T01:16:58;5.60;;;2.40;;
38865;SDS011;62686;48.984;8.394;2022-09-27T01:19:46;5.23;;;2.57;;
38865;SDS011;62686;48.984;8.394;2022-09-27T01:22:30;3.00;;;2.17;;
38865;SDS011;62686;48.984;8.394;2022-09-27T01:25:04;5.77;;;2.20;;
38865;SDS011;62686;48.984;8.394;2022-09-27T01:30:42;3.27;;;1.80;;
38865;SDS011;62686;48.984;8.394;2022-09-27T01:33:23;5.10;;;1.90;;
38865;SDS011;62686;48.984;8.394;2022-09-27T01:36:06;4.90;;;1.90;;
38865;SDS011;62686;48.984;8.394;2022-09-27T01:38:44;2.50;;;1.83;;
38865;SDS011;62686;48.984;8.394;2022-09-27T01:41:26;2.73;;;1.90;;
38865;SDS011;62686;48.984;8.394;2022-09-27T01:44:02;2.63;;;1.97;;
38865;SDS011;62686;48.984;8.394;2022-09-27T01:46:35;7.83;;;1.80;;
38865;SDS011;62686;48.984;8.394;2022-09-27T01:49:07;3.53;;;1.60;;
38865;SDS011;62686;48.984;8.394;2022-09-27T01:51:40;3.93;;;2.07;;
38865;SDS011;62686;48.984;8.394;2022-09-27T01:54:14;3.63;;;2.10;;
38865;SDS011;62686;48.984;8.394;2022-09-27T01:56:46;5.37;;;1.90;;
38865;SDS011;62686;48.984;8.394;2022-09-27T01:59:18;4.43;;;2.17;;
38865;SDS011;62686;48.984;8.394;2022-09-27T02:01:52;6.20;;;2.20;;
38865;SDS011;62686;48.984;8.394;2022-09-27T02:04:26;4.97;;;2.03;;
38865;SDS011;62686;48.984;8.394;2022-09-27T02:06:57;7.40;;;2.70;;
38865;SDS011;62686;48.984;8.394;2022-09-27T02:09:32;4.27;;;2.57;;
38865;SDS011;62686;48.984;8.394;2022-09-27T02:12:05;4.67;;;2.13;;
38865;SDS011;62686;48.984;8.394;2022-09-27T02:14:38;6.37;;;2.80;;
38865;SDS011;62686;48.984;8.394;2022-09-27T02:17:14;8.77;;;2.70;;
38865;SDS011;62686;48.984;8.394;2022-09-27T02:19:51;4.60;;;2.37;;
38865;SDS011;62686;48.984;8.394;2022-09-27T02:22:29;4.83;;;2.53;;
38865;SDS011;62686;48.984;8.394;2022-09-27T02:25:01;3.87;;;2.43;;
38865;SDS011;62686;48.984;8.394;2022-09-27T02:27:37;7.97;;;2.80;;
38865;SDS011;62686;48.984;8.394;2022-09-27T02:30:12;4.73;;;2.80;;
38865;SDS011;62686;48.984;8.394;2022-09-27T02:32:43;5.93;;;2.77;;
38865;SDS011;62686;48.984;8.394;2022-09-27T02:35:12;6.63;;;2.70;;
38865;SDS011;62686;48.984;8.394;2022-09-27T02:37:44;10.33;;;3.20;;
38865;SDS011;62686;48.984;8.394;2022-09-27T02:40:12;7.80;;;3.33;;
38865;SDS011;62686;48.984;8.394;2022-09-27T02:42:42;6.00;;;3.03;;
38865;SDS011;62686;48.984;8.394;2022-09-27T02:45:11;6.57;;;2.87;;
38865;SDS011;62686;48.984;8.394;2022-09-27T02:47:48;10.57;;;3.47;;
38865;SDS011;62686;48.984;8.394;2022-09-27T02:50:34;7.60;;;3.47;;
38865;SDS011;62686;48.984;8.394;2022-09-27T02:53:21;11.17;;;2.97;;
38865;SDS011;62686;48.984;8.394;2022-09-27T02:56:00;7.63;;;3.17;;
38865;SDS011;62686;48.984;8.394;2022-09-27T02:58:40;7.33;;;2.93;;
38865;SDS011;62686;48.984;8.394;2022-09-27T03:01:18;9.63;;;3.57;;
38865;SDS011;62686;48.984;8.394;2022-09-27T03:03:56;10.20;;;3.63;;
38865;SDS011;62686;48.984;8.394;2022-09-27T03:06:29;7.33;;;2.93;;
38865;SDS011;62686;48.984;8.394;2022-09-27T03:08:59;7.33;;;3.13;;
38865;SDS011;62686;48.984;8.394;2022-09-27T03:11:27;10.90;;;3.50;;
38865;SDS011;62686;48.984;8.394;2022-09-27T03:13:55;13.67;;;3.90;;
38865;SDS011;62686;48.984;8.394;2022-09-27T03:16:33;10.83;;;3.57;;
38865;SDS011;62686;48.984;8.394;2022-09-27T03:19:03;11.00;;;3.63;;
38865;SDS011;62686;48.984;8.394;2022-09-27T03:21:31;14.20;;;3.67;;
38865;SDS011;62686;48.984;8.394;2022-09-27T03:24:00;14.93;;;3.83;;
38865;SDS011;62686;48.984;8.394;2022-09-27T03:26:28;11.63;;;3.43;;
38865;SDS011;62686;48.984;8.394;2022-09-27T03:28:57;8.13;;;3.77;;
38865;SDS011;62686;48.984;8.394;2022-09-27T03:31:25;12.60;;;3.53;;
38865;SDS011;62686;48.984;8.394;2022-09-27T03:33:53;15.50;;;3.80;;
38865;SDS011;62686;48.984;8.394;2022-09-27T03:36:23;12.33;;;3.87;;
38865;SDS011;62686;48.984;8.394;2022-09-27T03:38:52;12.10;;;3.77;;
38865;SDS011;62686;48.984;8.394;2022-09-27T03:41:20;16.67;;;4.30;;
38865;SDS011;62686;48.984;8.394;2022-09-27T03:43:49;16.77;;;4.33;;
38865;SDS011;62686;48.984;8.394;2022-09-27T03:46:17;10.73;;;3.43;;
38865;SDS011;62686;48.984;8.394;2022-09-27T03:48:45;8.80;;;3.70;;
38865;SDS011;62686;48.984;8.394;2022-09-27T03:51:13;13.33;;;4.23;;
38865;SDS011;62686;48.984;8.394;2022-09-27T03:53:43;10.07;;;3.67;;
38865;SDS011;62686;48.984;8.394;2022-09-27T03:56:12;14.70;;;4.27;;
38865;SDS011;62686;48.984;8.394;2022-09-27T03:58:40;13.83;;;4.10;;
38865;SDS011;62686;48.984;8.394;2022-09-27T04:01:08;11.40;;;4.60;;
38865;SDS011;62686;48.984;8.394;2022-09-27T04:03:36;13.77;;;4.10;;
38865;SDS011;62686;48.984;8.394;2022-09-27T04:06:05;12.07;;;3.90;;
38865;SDS011;62686;48.984;8.394;2022-09-27T04:08:34;16.53;;;4.03;;
38865;SDS011;62686;48.984;8.394;2022-09-27T04:11:04;12.60;;;3.73;;
38865;SDS011;62686;48.984;8.394;2022-09-27T04:13:32;11.47;;;4.10;;
38865;SDS011;62686;48.984;8.394;2022-09-27T04:16:00;11.80;;;4.20;;
38865;SDS011;62686;48.984;8.394;2022-09-27T04:18:29;13.20;;;3.80;;
38865;SDS011;62686;48.984;8.394;2022-09-27T04:20:57;16.77;;;4.40;;
38865;SDS011;62686;48.984;8.394;2022-09-27T04:23:26;10.57;;;4.00;;
38865;SDS011;62686;48.984;8.394;2022-09-27T04:25:55;11.03;;;4.10;;
38865;SDS011;62686;48.984;8.394;2022-09-27T04:28:24;9.73;;;3.53;;
38865;SDS011;62686;48.984;8.394;2022-09-27T04:30:53;9.97;;;3.57;;
38865;SDS011;62686;48.984;8.394;2022-09-27T04:33:21;11.10;;;3.80;;
38865;SDS011;62686;48.984;8.394;2022-09-27T04:35:50;8.67;;;3.53;;
38865;SDS011;62686;48.984;8.394;2022-09-27T04:38:35;11.73;;;3.43;;
38865;SDS011;62686;48.984;8.394;2022-09-27T04:41:04;14.03;;;3.60;;
38865;SDS011;62686;48.984;8.394;2022-09-27T04:43:34;11.77;;;3.33;;
38865;SDS011;62686;48.984;8.394;2022-09-27T04:46:02;9.50;;;3.60;;
38865;SDS011;62686;48.984;8.394;2022-09-27T04:48:30;12.40;;;3.70;;
38865;SDS011;62686;48.984;8.394;2022-09-27T04:50:59;10.77;;;3.60;;
38865;SDS011;62686;48.984;8.394;2022-09-27T04:53:29;10.40;;;3.57;;
38865;SDS011;62686;48.984;8.394;2022-09-27T04:55:58;8.20;;;3.77;;
38865;SDS011;62686;48.984;8.394;2022-09-27T04:58:28;12.17;;;3.60;;
38865;SDS011;62686;48.984;8.394;2022-09-27T05:00:57;11.20;;;3.27;;
38865;SDS011;62686;48.984;8.394;2022-09-27T05:03:27;8.87;;;3.13;;
38865;SDS011;62686;48.984;8.394;2022-09-27T05:05:56;9.73;;;3.23;;
38865;SDS011;62686;48.984;8.394;2022-09-27T05:08:24;6.63;;;2.70;;
38865;SDS011;62686;48.984;8.394;2022-09-27T05:10:53;13.90;;;3.13;;
38865;SDS011;62686;48.984;8.394;2022-09-27T05:13:22;9.87;;;3.07;;
38865;SDS011;62686;48.984;8.394;2022-09-27T05:15:50;7.80;;;3.00;;
38865;SDS011;62686;48.984;8.394;2022-09-27T05:18:20;8.90;;;2.77;;
38865;SDS011;62686;48.984;8.394;2022-09-27T05:20:48;6.77;;;3.03;;
38865;SDS011;62686;48.984;8.394;2022-09-27T05:23:16;5.47;;;2.80;;
38865;SDS011;62686;48.984;8.394;2022-09-27T05:25:45;8.13;;;2.63;;
38865;SDS011;62686;48.984;8.394;2022-09-27T05:28:13;10.93;;;2.50;;
38865;SDS011;62686;48.984;8.394;2022-09-27T05:30:42;9.83;;;3.07;;
38865;SDS011;62686;48.984;8.394;2022-09-27T05:33:11;6.90;;;2.77;;
38865;SDS011;62686;48.984;8.394;2022-09-27T05:35:40;9.10;;;2.63;;
38865;SDS011;62686;48.984;8.394;2022-09-27T05:38:12;6.60;;;2.53;;
38865;SDS011;62686;48.984;8.394;2022-09-27T05:40:41;6.90;;;2.50;;
38865;SDS011;62686;48.984;8.394;2022-09-27T05:43:09;6.50;;;2.27;;
38865;SDS011;62686;48.984;8.394;2022-09-27T05:45:37;7.97;;;2.60;;
38865;SDS011;62686;48.984;8.394;2022-09-27T05:48:06;5.93;;;2.23;;
38865;SDS011;62686;48.984;8.394;2022-09-27T05:50:34;4.50;;;2.00;;
38865;SDS011;62686;48.984;8.394;2022-09-27T05:53:04;5.33;;;2.00;;
38865;SDS011;62686;48.984;8.394;2022-09-27T05:55:32;6.00;;;2.60;;
38865;SDS011;62686;48.984;8.394;2022-09-27T05:58:01;6.03;;;2.30;;
38865;SDS011;62686;48.984;8.394;2022-09-27T06:00:31;5.03;;;2.33;;
38865;SDS011;62686;48.984;8.394;2022-09-27T06:03:00;6.33;;;2.10;;
38865;SDS011;62686;48.984;8.394;2022-09-27T06:05:30;2.87;;;1.70;;
38865;SDS011;62686;48.984;8.394;2022-09-27T06:08:04;5.50;;;1.80;;
38865;SDS011;62686;48.984;8.394;2022-09-27T06:10:33;9.13;;;1.77;;
38865;SDS011;62686;48.984;8.394;2022-09-27T06:13:03;4.27;;;1.80;;
38865;SDS011;62686;48.984;8.394;2022-09-27T06:15:33;4.37;;;1.70;;
38865;SDS011;62686;48.984;8.394;2022-09-27T06:18:03;2.70;;;1.20;;
38865;SDS011;62686;48.984;8.394;2022-09-27T06:20:33;4.40;;;1.60;;
38865;SDS011;62686;48.984;8.394;2022-09-27T06:23:06;2.73;;;1.33;;
38865;SDS011;62686;48.984;8.394;2022-09-27T06:25:35;4.07;;;1.50;;
38865;SDS011;62686;48.984;8.394;2022-09-27T06:28:04;3.50;;;1.77;;
38865;SDS011;62686;48.984;8.394;2022-09-27T06:30:32;2.20;;;1.20;;
38865;SDS011;62686;48.984;8.394;2022-09-27T06:33:04;3.90;;;1.40;;
38865;SDS011;62686;48.984;8.394;2022-09-27T06:35:34;4.10;;;1.50;;
38865;SDS011;62686;48.984;8.394;2022-09-27T06:38:02;4.67;;;1.70;;
38865;SDS011;62686;48.984;8.394;2022-09-27T06:40:34;5.23;;;1.50;;
38865;SDS011;62686;48.984;8.394;2022-09-27T06:43:02;5.07;;;1.50;;
38865;SDS011;62686;48.984;8.394;2022-09-27T06:45:31;1.50;;;1.40;;
38865;SDS011;62686;48.984;8.394;2022-09-27T06:48:01;2.30;;;1.27;;
38865;SDS011;62686;48.984;8.394;2022-09-27T06:50:30;3.63;;;1.10;;
38865;SDS011;62686;48.984;8.394;2022-09-27T06:52:59;6.43;;;1.63;;
38865;SDS011;62686;48.984;8.394;2022-09-27T06:55:28;2.17;;;1.07;;
38865;SDS011;62686;48.984;8.394;2022-09-27T06:57:58;2.47;;;1.23;;
38865;SDS011;62686;48.984;8.394;2022-09-27T07:00:47;3.57;;;1.30;;
38865;SDS011;62686;48.984;8.394;2022-09-27T07:03:18;2.27;;;0.90;;
38865;SDS011;62686;48.984;8.394;2022-09-27T07:05:54;3.33;;;1.27;;
38865;SDS011;62686;48.984;8.394;2022-09-27T07:08:24;1.73;;;1.00;;
38865;SDS011;62686;48.984;8.394;2022-09-27T07:10:54;2.90;;;1.10;;
38865;SDS011;62686;48.984;8.394;2022-09-27T07:13:24;2.10;;;1.03;;
38865;SDS011;62686;48.984;8.394;2022-09-27T07:15:55;3.87;;;1.20;;
38865;SDS011;62686;48.984;8.394;2022-09-27T07:18:23;2.20;;;1.20;;
38865;SDS011;62686;48.984;8.394;2022-09-27T07:20:52;3.17;;;1.00;;
38865;SDS011;62686;48.984;8.394;2022-09-27T07:23:23;2.30;;;1.10;;
38865;SDS011;62686;48.984;8.394;2022-09-27T07:25:52;3.87;;;1.23;;
38865;SDS011;62686;48.984;8.394;2022-09-27T07:28:20;1.50;;;0.93;;
38865;SDS011;62686;48.984;8.394;2022-09-27T07:30:53;2.53;;;1.10;;
38865;SDS011;62686;48.984;8.394;2022-09-27T07:33:22;2.13;;;1.10;;
38865;SDS011;62686;48.984;8.394;2022-09-27T07:35:50;5.80;;;1.10;;
38865;SDS011;62686;48.984;8.394;2022-09-27T07:38:19;1.73;;;1.00;;
38865;SDS011;62686;48.984;8.394;2022-09-27T07:40:47;3.00;;;1.03;;
38865;SDS011;62686;48.984;8.394;2022-09-27T07:43:15;2.20;;;1.20;;
38865;SDS011;62686;48.984;8.394;2022-09-27T07:45:44;2.50;;;1.07;;
38865;SDS011;62686;48.984;8.394;2022-09-27T07:48:14;2.70;;;1.20;;
38865;SDS011;62686;48.984;8.394;2022-09-27T07:50:43;2.73;;;1.03;;
38865;SDS011;62686;48.984;8.394;2022-09-27T07:53:12;3.63;;;0.90;;
38865;SDS011;62686;48.984;8.394;2022-09-27T07:55:41;1.27;;;0.70;;
38865;SDS011;62686;48.984;8.394;2022-09-27T07:58:10;1.83;;;1.13;;
38865;SDS011;62686;48.984;8.394;2022-09-27T08:00:39;1.93;;;1.10;;
38865;SDS011;62686;48.984;8.394;2022-09-27T08:03:09;2.53;;;1.00;;
38865;SDS011;62686;48.984;8.394;2022-09-27T08:05:42;4.23;;;1.57;;
38865;SDS011;62686;48.984;8.394;2022-09-27T08:08:12;3.27;;;1.33;;
38865;SDS011;62686;48.984;8.394;2022-09-27T08:10:40;1.07;;;0.97;;
38865;SDS011;62686;48.984;8.394;2022-09-27T08:13:10;3.17;;;1.33;;
38865;SDS011;62686;48.984;8.394;2022-09-27T08:15:38;4.13;;;1.43;;
38865;SDS011;62686;48.984;8.394;2022-09-27T08:18:07;3.33;;;1.50;;
38865;SDS011;62686;48.984;8.394;2022-09-27T08:20:35;3.33;;;1.23;;
38865;SDS011;62686;48.984;8.394;2022-09-27T08:23:06;3.40;;;1.40;;
38865;SDS011;62686;48.984;8.394;2022-09-27T08:25:35;2.40;;;1.30;;
38865;SDS011;62686;48.984;8.394;2022-09-27T08:28:03;4.00;;;1.30;;
38865;SDS011;62686;48.984;8.394;2022-09-27T08:30:31;3.40;;;1.23;;
38865;SDS011;62686;48.984;8.394;2022-09-27T08:33:00;2.00;;;0.90;;
38865;SDS011;62686;48.984;8.394;2022-09-27T08:35:30;8.30;;;1.40;;
38865;SDS011;62686;48.984;8.394;2022-09-27T08:37:59;2.30;;;1.10;;
38865;SDS011;62686;48.984;8.394;2022-09-27T08:40:36;1.45;;;1.05;;
38865;SDS011;62686;48.984;8.394;2022-09-27T08:43:17;4.78;;;1.50;;
38865;SDS011;62686;48.984;8.394;2022-09-27T08:45:54;4.63;;;1.50;;
38865;SDS011;62686;48.984;8.394;2022-09-27T08:48:30;1.90;;;1.00;;
38865;SDS011;62686;48.984;8.394;2022-09-27T08:51:00;4.30;;;1.50;;
38865;SDS011;62686;48.984;8.394;2022-09-27T08:53:32;2.70;;;1.15;;
38865;SDS011;62686;48.984;8.394;2022-09-27T08:56:06;5.75;;;1.33;;
38865;SDS011;62686;48.984;8.394;2022-09-27T08:58:38;2.88;;;1.30;;
38865;SDS011;62686;48.984;8.394;2022-09-27T09:01:10;3.90;;;1.50;;
38865;SDS011;62686;48.984;8.394;2022-09-27T09:03:43;2.77;;;1.40;;
38865;SDS011;62686;48.984;8.394;2022-09-27T09:06:16;3.15;;;1.23;;
38865;SDS011;62686;48.984;8.394;2022-09-27T09:08:56;3.67;;;1.63;;
38865;SDS011;62686;48.984;8.394;2022-09-27T09:11:33;4.63;;;1.73;;
38865;SDS011;62686;48.984;8.394;2022-09-27T09:14:41;6.07;;;1.60;;
38865;SDS011;62686;48.984;8.394;2022-09-27T09:17:23;7.93;;;1.87;;
38865;SDS011;62686;48.984;8.394;2022-09-27T09:20:02;5.40;;;2.20;;
38865;SDS011;62686;48.984;8.394;2022-09-27T09:22:47;4.80;;;1.70;;
38865;SDS011;62686;48.984;8.394;2022-09-27T09:25:29;3.40;;;1.73;;
38865;SDS011;62686;48.984;8.394;2022-09-27T09:28:06;4.33;;;1.40;;
38865;SDS011;62686;48.984;8.394;2022-09-27T09:30:49;3.50;;;1.50;;
38865;SDS011;62686;48.984;8.394;2022-09-27T09:33:27;3.83;;;1.50;;
38865;SDS011;62686;48.984;8.394;2022-09-27T09:35:59;4.18;;;1.30;;
38865;SDS011;62686;48.984;8.394;2022-09-27T09:38:33;2.95;;;1.17;;
38865;SDS011;62686;48.984;8.394;2022-09-27T09:41:06;3.17;;;1.30;;
38865;SDS011;62686;48.984;8.394;2022-09-27T09:43:43;4.27;;;1.40;;
38865;SDS011;62686;48.984;8.394;2022-09-27T09:46:17;2.97;;;1.40;;
38865;SDS011;62686;48.984;8.394;2022-09-27T09:48:50;4.33;;;1.30;;
38865;SDS011;62686;48.984;8.394;2022-09-27T09:51:26;1.60;;;1.20;;
38865;SDS011;62686;48.984;8.394;2022-09-27T09:54:01;5.37;;;1.40;;
38865;SDS011;62686;48.984;8.394;2022-09-27T09:56:37;3.47;;;1.50;;
38865;SDS011;62686;48.984;8.394;2022-09-27T09:59:13;3.70;;;1.70;;
38865;SDS011;62686;48.984;8.394;2022-09-27T10:01:46;4.30;;;1.70;;
38865;SDS011;62686;48.984;8.394;2022-09-27T10:04:17;3.87;;;1.63;;
38865;SDS011;62686;48.984;8.394;2022-09-27T10:06:48;3.40;;;1.60;;
38865;SDS011;62686;48.984;8.394;2022-09-27T10:09:19;3.50;;;1.77;;
38865;SDS011;62686;48.984;8.394;2022-09-27T10:11:50;4.60;;;1.50;;
38865;SDS011;62686;48.984;8.394;2022-09-27T10:14:21;2.17;;;1.80;;
38865;SDS011;62686;48.984;8.394;2022-09-27T10:16:52;6.77;;;1.93;;
38865;SDS011;62686;48.984;8.394;2022-09-27T10:19:24;4.27;;;1.70;;
38865;SDS011;62686;48.984;8.394;2022-09-27T10:21:57;5.50;;;1.80;;
38865;SDS011;62686;48.984;8.394;2022-09-27T10:24:29;4.80;;;2.00;;
38865;SDS011;62686;48.984;8.394;2022-09-27T10:27:08;3.63;;;2.13;;
38865;SDS011;62686;48.984;8.394;2022-09-27T10:29:38;4.37;;;2.50;;
38865;SDS011;62686;48.984;8.394;2022-09-27T10:32:17;3.87;;;2.23;;
38865;SDS011;62686;48.984;8.394;2022-09-27T10:34:49;4.40;;;2.10;;
38865;SDS011;62686;48.984;8.394;2022-09-27T10:37:19;5.97;;;2.47;;
38865;SDS011;62686;48.984;8.394;2022-09-27T10:39:49;4.57;;;2.40;;
38865;SDS011;62686;48.984;8.394;2022-09-27T10:42:19;7.37;;;2.00;;
38865;SDS011;62686;48.984;8.394;2022-09-27T10:44:50;4.53;;;1.87;;
38865;SDS011;62686;48.984;8.394;2022-09-27T10:47:19;2.90;;;1.40;;
38865;SDS011;62686;48.984;8.394;2022-09-27T10:49:51;2.87;;;1.27;;
38865;SDS011;62686;48.984;8.394;2022-09-27T10:52:32;1.63;;;1.13;;
38865;SDS011;62686;48.984;8.394;2022-09-27T10:55:04;1.43;;;1.17;;
38865;SDS011;62686;48.984;8.394;2022-09-27T10:57:46;1.90;;;1.00;;
38865;SDS011;62686;48.984;8.394;2022-09-27T11:00:21;2.47;;;1.00;;
38865;SDS011;62686;48.984;8.394;2022-09-27T11:02:51;2.70;;;0.90;;
38865;SDS011;62686;48.984;8.394;2022-09-27T11:05:30;2.17;;;1.00;;
38865;SDS011;62686;48.984;8.394;2022-09-27T11:08:01;2.20;;;1.63;;
38865;SDS011;62686;48.984;8.394;2022-09-27T11:11:01;4.10;;;2.97;;
38865;SDS011;62686;48.984;8.394;2022-09-27T11:13:32;3.57;;;2.40;;
38865;SDS011;62686;48.984;8.394;2022-09-27T11:19:03;1.80;;;1.00;;
38865;SDS011;62686;48.984;8.394;2022-09-27T11:21:43;3.17;;;1.13;;
38865;SDS011;62686;48.984;8.394;2022-09-27T11:24:27;2.20;;;1.43;;
38865;SDS011;62686;48.984;8.394;2022-09-27T11:27:13;2.57;;;1.50;;
38865;SDS011;62686;48.984;8.394;2022-09-27T11:29:53;5.73;;;1.70;;
38865;SDS011;62686;48.984;8.394;2022-09-27T11:32:36;2.90;;;1.50;;
38865;SDS011;62686;48.984;8.394;2022-09-27T11:35:37;2.47;;;2.23;;
38865;SDS011;62686;48.984;8.394;2022-09-27T11:38:16;4.47;;;2.40;;
38865;SDS011;62686;48.984;8.394;2022-09-27T11:41:10;4.23;;;1.40;;
38865;SDS011;62686;48.984;8.394;2022-09-27T11:43:56;9.50;;;4.53;;
38865;SDS011;62686;48.984;8.394;2022-09-27T11:46:38;7.43;;;4.53;;
38865;SDS011;62686;48.984;8.394;2022-09-27T11:52:01;6.10;;;3.83;;
38865;SDS011;62686;48.984;8.394;2022-09-27T11:54:43;3.80;;;1.70;;
38865;SDS011;62686;48.984;8.394;2022-09-27T11:57:26;8.80;;;6.67;;
38865;SDS011;62686;48.984;8.394;2022-09-27T12:00:04;10.83;;;8.17;;
38865;SDS011;62686;48.984;8.394;2022-09-27T12:03:03;15.03;;;8.73;;
38865;SDS011;62686;48.984;8.394;2022-09-27T12:05:52;5.57;;;4.53;;
38865;SDS011;62686;48.984;8.394;2022-09-27T12:08:36;3.93;;;3.33;;
38865;SDS011;62686;48.984;8.394;2022-09-27T12:11:25;3.80;;;2.60;;
38865;SDS011;62686;48.984;8.394;2022-09-27T12:13:58;3.47;;;2.10;;
38865;SDS011;62686;48.984;8.394;2022-09-27T12:16:29;3.60;;;2.10;;
38865;SDS011;62686;48.984;8.394;2022-09-27T12:18:58;5.73;;;2.87;;
38865;SDS011;62686;48.984;8.394;2022-09-27T12:21:30;2.73;;;1.43;;
38865;SDS011;62686;48.984;8.394;2022-09-27T12:24:00;2.80;;;1.70;;
38865;SDS011;62686;48.984;8.394;2022-09-27T12:26:33;2.17;;;0.90;;
38865;SDS011;62686;48.984;8.394;2022-09-27T12:29:04;3.20;;;1.20;;
38865;SDS011;62686;48.984;8.394;2022-09-27T12:31:41;0.93;;;0.90;;
38865;SDS011;62686;48.984;8.394;2022-09-27T12:34:17;4.40;;;1.30;;
38865;SDS011;62686;48.984;8.394;2022-09-27T12:36:52;1.47;;;1.00;;
38865;SDS011;62686;48.984;8.394;2022-09-27T12:39:27;1.43;;;0.90;;
38865;SDS011;62686;48.984;8.394;2022-09-27T12:42:05;1.93;;;0.77;;
38865;SDS011;62686;48.984;8.394;2022-09-27T12:44:43;2.33;;;0.93;;
38865;SDS011;62686;48.984;8.394;2022-09-27T12:47:14;0.77;;;0.70;;
38865;SDS011;62686;48.984;8.394;2022-09-27T12:50:06;1.47;;;0.67;;
38865;SDS011;62686;48.984;8.394;2022-09-27T12:52:41;2.20;;;1.07;;
38865;SDS011;62686;48.984;8.394;2022-09-27T12:55:20;3.10;;;0.97;;
38865;SDS011;62686;48.984;8.394;2022-09-27T12:58:20;2.13;;;0.97;;
38865;SDS011;62686;48.984;8.394;2022-09-27T13:01:08;1.63;;;0.90;;
38865;SDS011;62686;48.984;8.394;2022-09-27T13:03:53;4.40;;;1.30;;
38865;SDS011;62686;48.984;8.394;2022-09-27T13:09:38;2.03;;;0.90;;
38865;SDS011;62686;48.984;8.394;2022-09-27T13:12:27;2.83;;;1.00;;
38865;SDS011;62686;48.984;8.394;2022-09-27T13:14:59;3.87;;;0.90;;
38865;SDS011;62686;48.984;8.394;2022-09-27T13:17:47;2.50;;;1.10;;
38865;SDS011;62686;48.984;8.394;2022-09-27T13:26:44;2.47;;;0.90;;
38865;SDS011;62686;48.984;8.394;2022-09-27T13:29:23;0.87;;;0.77;;
38865;SDS011;62686;48.984;8.394;2022-09-27T13:34:49;3.20;;;0.90;;
38865;SDS011;62686;48.984;8.394;2022-09-27T13:40:30;1.70;;;1.10;;
38865;SDS011;62686;48.984;8.394;2022-09-27T13:43:24;1.17;;;0.70;;
38865;SDS011;62686;48.984;8.394;2022-09-27T13:46:03;1.80;;;0.90;;
38865;SDS011;62686;48.984;8.394;2022-09-27T13:48:38;2.33;;;0.80;;
38865;SDS011;62686;48.984;8.394;2022-09-27T13:51:17;1.13;;;0.87;;
38865;SDS011;62686;48.984;8.394;2022-09-27T13:53:56;2.83;;;1.20;;
38865;SDS011;62686;48.984;8.394;2022-09-27T13:59:17;3.37;;;0.87;;
38865;SDS011;62686;48.984;8.394;2022-09-27T14:01:51;2.30;;;0.80;;
38865;SDS011;62686;48.984;8.394;2022-09-27T14:04:22;1.30;;;1.00;;
38865;SDS011;62686;48.984;8.394;2022-09-27T14:06:55;1.03;;;0.93;;
38865;SDS011;62686;48.984;8.394;2022-09-27T14:09:26;3.03;;;1.23;;
38865;SDS011;62686;48.984;8.394;2022-09-27T14:11:57;1.10;;;0.90;;
38865;SDS011;62686;48.984;8.394;2022-09-27T14:14:30;3.10;;;1.00;;
38865;SDS011;62686;48.984;8.394;2022-09-27T14:17:00;1.87;;;1.20;;
38865;SDS011;62686;48.984;8.394;2022-09-27T14:19:37;1.53;;;0.87;;
38865;SDS011;62686;48.984;8.394;2022-09-27T14:22:10;2.10;;;1.03;;
38865;SDS011;62686;48.984;8.394;2022-09-27T14:24:43;1.53;;;0.80;;
38865;SDS011;62686;48.984;8.394;2022-09-27T14:27:14;1.60;;;0.80;;
38865;SDS011;62686;48.984;8.394;2022-09-27T14:29:47;2.67;;;0.90;;
38865;SDS011;62686;48.984;8.394;2022-09-27T14:32:18;1.23;;;0.80;;
38865;SDS011;62686;48.984;8.394;2022-09-27T14:35:01;0.83;;;0.60;;
38865;SDS011;62686;48.984;8.394;2022-09-27T14:37:31;1.30;;;0.90;;
38865;SDS011;62686;48.984;8.394;2022-09-27T14:40:00;2.80;;;1.00;;
38865;SDS011;62686;48.984;8.394;2022-09-27T14:42:32;1.70;;;0.70;;
38865;SDS011;62686;48.984;8.394;2022-09-27T14:45:18;1.07;;;0.90;;
38865;SDS011;62686;48.984;8.394;2022-09-27T14:47:48;1.10;;;0.80;;
38865;SDS011;62686;48.984;8.394;2022-09-27T14:50:19;1.50;;;0.80;;
38865;SDS011;62686;48.984;8.394;2022-09-27T14:52:49;1.13;;;0.80;;
38865;SDS011;62686;48.984;8.394;2022-09-27T14:55:22;1.77;;;0.90;;
38865;SDS011;62686;48.984;8.394;2022-09-27T14:57:53;0.90;;;0.80;;
38865;SDS011;62686;48.984;8.394;2022-09-27T15:00:25;2.27;;;0.83;;
38865;SDS011;62686;48.984;8.394;2022-09-27T15:02:57;3.67;;;1.00;;
38865;SDS011;62686;48.984;8.394;2022-09-27T15:05:29;2.93;;;0.97;;
38865;SDS011;62686;48.984;8.394;2022-09-27T15:08:02;2.10;;;0.90;;
38865;SDS011;62686;48.984;8.394;2022-09-27T15:10:33;1.97;;;0.90;;
38865;SDS011;62686;48.984;8.394;2022-09-27T15:13:03;1.23;;;0.80;;
38865;SDS011;62686;48.984;8.394;2022-09-27T15:15:34;3.30;;;1.00;;
38865;SDS011;62686;48.984;8.394;2022-09-27T15:20:59;1.23;;;0.90;;
38865;SDS011;62686;48.984;8.394;2022-09-27T15:23:28;3.00;;;1.10;;
38865;SDS011;62686;48.984;8.394;2022-09-27T15:26:02;3.03;;;1.00;;
38865;SDS011;62686;48.984;8.394;2022-09-27T15:28:35;2.10;;;0.87;;
38865;SDS011;62686;48.984;8.394;2022-09-27T15:31:10;3.37;;;1.23;;
38865;SDS011;62686;48.984;8.394;2022-09-27T15:33:39;3.87;;;1.20;;
38865;SDS011;62686;48.984;8.394;2022-09-27T15:36:09;4.90;;;1.10;;
38865;SDS011;62686;48.984;8.394;2022-09-27T15:38:41;3.17;;;0.90;;
38865;SDS011;62686;48.984;8.394;2022-09-27T15:41:12;2.93;;;0.97;;
38865;SDS011;62686;48.984;8.394;2022-09-27T15:43:43;4.33;;;1.50;;
38865;SDS011;62686;48.984;8.394;2022-09-27T15:46:32;4.87;;;1.93;;
38865;SDS011;62686;48.984;8.394;2022-09-27T15:49:21;2.00;;;1.53;;
38865;SDS011;62686;48.984;8.394;2022-09-27T15:52:00;1.87;;;0.90;;